createdAt,value
2018-12-08T00:01:50.569Z,67.00
2018-12-08T00:04:25.553Z,66.98
2018-12-08T00:07:06.131Z,67.69
2018-12-08T00:09:41.010Z,67.45
2018-12-08T00:12:24.267Z,67.44
2018-12-08T00:14:58.829Z,67.75
2018-12-08T00:17:45.653Z,67.87
2018-12-08T00:20:36.195Z,67.47
2018-12-08T00:26:11.144Z,63.31
2018-12-08T00:28:49.730Z,63.54
2018-12-08T00:31:38.547Z,63.94
2018-12-08T00:34:16.448Z,64.49
2018-12-08T00:36:55.786Z,64.99
2018-12-08T00:39:34.279Z,64.98
2018-12-08T00:42:12.320Z,65.26
2018-12-08T00:44:49.485Z,66.26
2018-12-08T00:47:24.760Z,66.00
2018-12-08T00:50:05.092Z,66.61
2018-12-08T00:52:43.872Z,68.50
2018-12-08T00:55:18.412Z,70.08
2018-12-08T00:57:57.436Z,70.12
2018-12-08T01:00:39.191Z,70.54
2018-12-08T01:03:17.487Z,69.24
2018-12-08T01:06:05.343Z,69.49
2018-12-08T01:08:43.753Z,68.54
2018-12-08T01:11:22.335Z,68.30
2018-12-08T01:14:11.212Z,67.98
2018-12-08T01:16:49.552Z,68.16
2018-12-08T01:19:24.767Z,67.49
2018-12-08T01:22:02.683Z,67.70
2018-12-08T01:24:44.237Z,66.88
2018-12-08T01:27:25.411Z,66.63
2018-12-08T01:30:06.408Z,66.80
2018-12-08T01:32:41.547Z,65.77
2018-12-08T01:35:17.085Z,66.03
2018-12-08T01:37:55.223Z,66.50
2018-12-08T01:40:29.547Z,66.78
2018-12-08T01:43:07.500Z,66.47
2018-12-08T01:45:41.926Z,66.69
2018-12-08T01:48:20.281Z,67.62
2018-12-08T01:50:54.959Z,68.21
2018-12-08T01:53:33.138Z,68.51
2018-12-08T01:56:12.301Z,68.35
2018-12-08T01:58:53.538Z,67.92
2018-12-08T02:01:36.849Z,67.78
2018-12-08T02:04:11.586Z,67.48
2018-12-08T02:06:54.068Z,67.42
2018-12-08T02:09:33.805Z,67.05
2018-12-08T02:12:11.021Z,66.86
2018-12-08T02:14:52.824Z,66.56
2018-12-08T02:17:33.861Z,67.15
2018-12-08T02:20:14.238Z,68.02
2018-12-08T02:22:51.505Z,68.80
2018-12-08T02:25:26.502Z,69.13
2018-12-08T02:28:04.210Z,69.89
2018-12-08T02:30:45.745Z,69.51
2018-12-08T02:33:26.683Z,70.02
2018-12-08T02:36:09.381Z,69.67
2018-12-08T02:38:49.881Z,67.12
2018-12-08T02:41:31.320Z,66.00
2018-12-08T02:44:10.020Z,66.20
2018-12-08T02:46:44.765Z,65.23
2018-12-08T02:49:22.776Z,65.05
2018-12-08T02:52:05.943Z,63.87
2018-12-08T02:54:57.034Z,64.21
2018-12-08T02:57:35.037Z,64.12
2018-12-08T03:00:14.034Z,64.48
2018-12-08T03:02:54.901Z,65.11
2018-12-08T03:05:33.045Z,66.51
2018-12-08T03:08:14.255Z,66.97
2018-12-08T03:10:55.825Z,67.52
2018-12-08T03:13:37.299Z,67.71
2018-12-08T03:16:20.738Z,67.54
2018-12-08T03:19:02.487Z,67.89
2018-12-08T03:21:42.906Z,67.70
2018-12-08T03:24:18.227Z,68.15
2018-12-08T03:26:59.293Z,68.21
2018-12-08T03:29:34.254Z,68.15
2018-12-08T03:32:13.760Z,68.12
2018-12-08T03:34:51.717Z,68.71
2018-12-08T03:37:30.844Z,68.27
2018-12-08T03:40:09.927Z,69.35
2018-12-08T03:42:45.291Z,69.66
2018-12-08T03:45:19.924Z,70.01
2018-12-08T03:48:01.817Z,69.87
2018-12-08T03:50:39.918Z,70.41
2018-12-08T03:53:18.658Z,70.60
2018-12-08T03:55:53.112Z,70.29
2018-12-08T03:58:35.316Z,70.33
2018-12-08T04:01:14.266Z,70.68
2018-12-08T04:03:52.403Z,70.59
2018-12-08T04:06:29.163Z,70.82
2018-12-08T04:09:07.498Z,71.31
2018-12-08T04:11:44.452Z,71.77
2018-12-08T04:14:29.463Z,71.27
2018-12-08T04:17:12.204Z,71.88
2018-12-08T04:19:49.413Z,74.20
2018-12-08T04:22:29.208Z,76.66
2018-12-08T04:25:09.910Z,75.75
2018-12-08T04:27:50.723Z,76.23
2018-12-08T04:30:29.638Z,75.42
2018-12-08T04:33:07.508Z,74.33
2018-12-08T04:38:33.890Z,73.40
2018-12-08T04:41:12.411Z,71.95
2018-12-08T04:43:48.890Z,71.97
2018-12-08T04:46:26.711Z,71.27
2018-12-08T04:49:08.376Z,70.07
2018-12-08T04:51:49.923Z,70.28
2018-12-08T04:54:28.446Z,68.88
2018-12-08T04:57:04.039Z,69.62
2018-12-08T04:59:45.404Z,69.34
2018-12-08T05:02:36.631Z,68.87
2018-12-08T05:05:17.775Z,69.18
2018-12-08T05:07:56.749Z,69.23
2018-12-08T05:10:44.022Z,69.21
2018-12-08T05:13:25.876Z,69.10
2018-12-08T05:16:00.378Z,69.30
2018-12-08T05:18:38.734Z,69.55
2018-12-08T05:21:14.049Z,69.24
2018-12-08T05:23:51.269Z,68.89
2018-12-08T05:26:28.191Z,68.99
2018-12-08T05:29:09.406Z,69.31
2018-12-08T05:31:48.360Z,69.18
2018-12-08T05:34:26.243Z,68.37
2018-12-08T05:37:05.054Z,67.95
2018-12-08T05:39:43.954Z,68.02
2018-12-08T05:42:24.996Z,68.19
2018-12-08T05:45:01.428Z,68.18
2018-12-08T05:47:38.059Z,67.61
2018-12-08T05:50:19.624Z,67.46
2018-12-08T05:52:54.158Z,67.33
2018-12-08T05:55:33.300Z,66.69
2018-12-08T05:58:09.741Z,66.07
2018-12-08T06:00:47.801Z,65.47
2018-12-08T06:03:28.814Z,65.40
2018-12-08T06:06:05.185Z,65.61
2018-12-08T06:08:45.228Z,66.11
2018-12-08T06:11:26.165Z,65.45
2018-12-08T06:14:03.406Z,65.15
2018-12-08T06:16:44.748Z,65.55
2018-12-08T06:19:23.910Z,65.48
2018-12-08T06:22:04.956Z,65.32
2018-12-08T06:24:47.803Z,65.79
2018-12-08T06:27:35.309Z,65.99
2018-12-08T06:30:13.210Z,66.06
2018-12-08T06:32:52.374Z,65.95
2018-12-08T06:35:27.905Z,66.23
2018-12-08T06:38:06.389Z,66.75
2018-12-08T06:40:47.154Z,66.48
2018-12-08T06:43:27.206Z,66.60
2018-12-08T06:46:05.101Z,66.27
2018-12-08T06:48:39.898Z,66.35
2018-12-08T06:51:14.883Z,66.61
2018-12-08T06:53:53.055Z,66.57
2018-12-08T06:56:34.747Z,66.54
2018-12-08T06:59:15.722Z,66.74
2018-12-08T07:01:58.877Z,66.68
2018-12-08T07:04:35.605Z,66.29
2018-12-08T07:07:16.956Z,66.65
2018-12-08T07:09:54.334Z,66.80
2018-12-08T07:12:34.344Z,66.16
2018-12-08T07:15:12.254Z,66.53
2018-12-08T07:17:52.650Z,66.26
2018-12-08T07:20:27.706Z,65.82
2018-12-08T07:23:08.853Z,65.19
2018-12-08T07:25:49.194Z,65.15
2018-12-08T07:28:32.738Z,65.17
2018-12-08T07:31:13.480Z,65.12
2018-12-08T07:34:00.943Z,64.50
2018-12-08T07:36:36.083Z,63.90
2018-12-08T07:39:10.838Z,63.76
2018-12-08T07:41:45.945Z,63.47
2018-12-08T07:44:24.930Z,63.01
2018-12-08T07:47:00.278Z,62.85
2018-12-08T07:49:38.195Z,63.43
2018-12-08T07:52:19.283Z,62.68
2018-12-08T07:55:00.740Z,62.73
2018-12-08T07:57:51.435Z,62.86
2018-12-08T08:00:26.646Z,63.05
2018-12-08T08:03:01.071Z,63.18
2018-12-08T08:05:39.738Z,62.49
2018-12-08T08:08:21.218Z,62.91
2018-12-08T08:11:01.361Z,63.04
2018-12-08T08:13:36.445Z,62.40
2018-12-08T08:16:12.818Z,62.40
2018-12-08T08:18:47.281Z,62.39
2018-12-08T08:21:25.510Z,61.79
2018-12-08T08:24:05.895Z,61.75
2018-12-08T08:26:58.709Z,61.67
2018-12-08T08:29:33.240Z,61.93
2018-12-08T08:32:11.322Z,61.12
2018-12-08T08:35:03.729Z,61.24
2018-12-08T08:37:45.837Z,60.70
2018-12-08T08:40:37.142Z,61.04
2018-12-08T08:46:25.262Z,59.93
2018-12-08T08:49:13.744Z,59.70
2018-12-08T08:51:48.722Z,59.91
2018-12-08T08:54:31.735Z,60.14
2018-12-08T08:57:12.672Z,60.21
2018-12-08T08:59:49.464Z,60.00
2018-12-08T09:02:30.235Z,59.52
2018-12-08T09:05:08.616Z,59.87
2018-12-08T09:07:48.480Z,59.82
2018-12-08T09:10:29.188Z,59.31
2018-12-08T09:13:07.689Z,58.98
2018-12-08T09:15:49.969Z,59.27
2018-12-08T09:18:29.451Z,59.10
2018-12-08T09:21:10.873Z,58.12
2018-12-08T09:23:50.885Z,57.82
2018-12-08T09:26:28.506Z,57.52
2018-12-08T09:29:08.943Z,56.94
2018-12-08T09:31:49.020Z,56.88
2018-12-08T09:34:26.730Z,57.13
2018-12-08T09:37:03.262Z,56.44
2018-12-08T09:39:37.786Z,56.67
2018-12-08T09:42:28.972Z,56.58
2018-12-08T09:45:08.418Z,56.27
2018-12-08T09:53:42.329Z,56.72
2018-12-08T09:56:17.250Z,56.18
2018-12-08T09:58:55.351Z,55.92
2018-12-08T10:01:42.612Z,55.95
2018-12-08T10:04:23.714Z,55.75
2018-12-08T10:09:55.793Z,55.91
2018-12-08T10:12:37.091Z,55.96
2018-12-08T10:15:24.315Z,56.53
2018-12-08T10:18:04.646Z,55.96
2018-12-08T10:20:44.501Z,54.81
2018-12-08T10:23:24.938Z,54.72
2018-12-08T10:26:03.446Z,55.27
2018-12-08T10:28:41.845Z,54.96
2018-12-08T10:31:25.236Z,54.67
2018-12-08T10:34:07.269Z,54.56
2018-12-08T10:36:45.357Z,54.45
2018-12-08T10:39:26.476Z,52.92
2018-12-08T10:42:07.906Z,52.66
2018-12-08T10:44:51.407Z,52.63
2018-12-08T10:47:29.654Z,52.55
2018-12-08T10:50:09.639Z,52.33
2018-12-08T10:52:47.946Z,52.50
2018-12-08T10:55:26.597Z,52.04
2018-12-08T10:58:01.973Z,51.77
2018-12-08T11:00:47.719Z,52.00
2018-12-08T11:03:29.535Z,51.18
2018-12-08T11:06:12.416Z,52.21
2018-12-08T11:08:49.886Z,51.93
2018-12-08T11:11:26.950Z,51.14
2018-12-08T11:14:06.014Z,51.79
2018-12-08T11:16:47.643Z,51.53
2018-12-08T11:19:24.831Z,52.01
2018-12-08T11:22:01.378Z,51.30
2018-12-08T11:24:41.298Z,52.84
2018-12-08T11:27:22.455Z,52.31
2018-12-08T11:29:57.415Z,52.62
2018-12-08T11:32:39.400Z,52.38
2018-12-08T11:35:18.349Z,52.67
2018-12-08T11:37:59.817Z,53.05
2018-12-08T11:40:41.018Z,53.12
2018-12-08T11:43:20.542Z,52.41
2018-12-08T11:46:01.813Z,52.66
2018-12-08T11:48:40.095Z,52.51
2018-12-08T11:51:16.579Z,50.93
2018-12-08T11:53:54.848Z,50.31
2018-12-08T11:56:36.073Z,50.50
2018-12-08T11:59:16.506Z,49.65
2018-12-08T12:01:53.660Z,49.64
2018-12-08T12:04:36.039Z,50.06
2018-12-08T12:07:10.568Z,50.56
2018-12-08T12:09:55.631Z,50.10
2018-12-08T12:12:36.570Z,50.54
2018-12-08T12:15:14.284Z,50.37
2018-12-08T12:17:52.760Z,50.49
2018-12-08T12:20:27.669Z,50.81
2018-12-08T12:23:10.946Z,50.66
2018-12-08T12:25:45.679Z,50.51
2018-12-08T12:28:21.687Z,49.85
2018-12-08T12:30:56.875Z,50.15
2018-12-08T12:33:34.846Z,50.25
2018-12-08T12:36:14.830Z,50.50
2018-12-08T12:38:57.420Z,50.40
2018-12-08T12:41:32.562Z,51.08
2018-12-08T12:44:09.788Z,50.93
2018-12-08T12:46:47.906Z,52.04
2018-12-08T12:49:22.414Z,51.93
2018-12-08T12:52:02.732Z,51.46
2018-12-08T12:54:37.423Z,51.51
2018-12-08T12:57:12.367Z,51.21
2018-12-08T12:59:51.313Z,52.10
2018-12-08T13:02:27.471Z,52.52
2018-12-08T13:05:06.349Z,52.51
2018-12-08T13:07:47.251Z,52.44
2018-12-08T13:10:21.999Z,52.03
2018-12-08T13:13:06.437Z,52.12
2018-12-08T13:15:44.357Z,52.91
2018-12-08T13:18:25.683Z,52.95
2018-12-08T13:21:06.512Z,52.51
2018-12-08T13:23:44.480Z,52.33
2018-12-08T13:26:27.492Z,53.25
2018-12-08T13:29:03.547Z,52.92
2018-12-08T13:31:45.162Z,52.63
2018-12-08T13:34:26.499Z,53.11
2018-12-08T13:37:04.958Z,52.98
2018-12-08T13:39:42.719Z,53.14
2018-12-08T13:42:20.483Z,53.23
2018-12-08T13:45:06.437Z,52.87
2018-12-08T13:47:45.924Z,53.36
2018-12-08T13:50:20.824Z,52.74
2018-12-08T13:52:56.367Z,52.87
2018-12-08T13:55:31.075Z,53.13
2018-12-08T13:58:05.961Z,53.60
2018-12-08T14:00:42.685Z,53.08
2018-12-08T14:03:19.050Z,54.09
2018-12-08T14:05:55.284Z,54.01
2018-12-08T14:08:34.292Z,54.37
2018-12-08T14:11:12.914Z,54.17
2018-12-08T14:13:51.808Z,54.34
2018-12-08T14:16:32.931Z,54.49
2018-12-08T14:19:12.962Z,53.76
2018-12-08T14:21:51.122Z,54.17
2018-12-08T14:24:32.044Z,54.06
2018-12-08T14:27:07.456Z,54.51
2018-12-08T14:29:47.757Z,55.09
2018-12-08T14:32:28.763Z,54.93
2018-12-08T14:35:18.254Z,55.19
2018-12-08T14:38:05.256Z,55.26
2018-12-08T14:40:44.068Z,55.63
2018-12-08T14:43:25.973Z,55.87
2018-12-08T14:46:07.129Z,56.79
2018-12-08T14:48:47.878Z,57.46
2018-12-08T14:51:28.324Z,57.75
2018-12-08T14:54:04.780Z,58.02
2018-12-08T14:56:46.661Z,58.07
2018-12-08T15:02:09.281Z,59.06
2018-12-08T15:04:48.507Z,59.12
2018-12-08T15:07:25.035Z,58.73
2018-12-08T15:10:08.067Z,59.10
2018-12-08T15:12:44.754Z,59.52
2018-12-08T15:15:19.578Z,60.03
2018-12-08T15:17:55.338Z,60.37
2018-12-08T15:20:33.235Z,60.73
2018-12-08T15:23:13.535Z,60.45
2018-12-08T15:25:53.683Z,60.76
2018-12-08T15:28:31.358Z,60.83
2018-12-08T15:31:06.254Z,61.00
2018-12-08T15:33:41.225Z,60.67
2018-12-08T15:36:19.411Z,60.61
2018-12-08T15:39:00.134Z,60.44
2018-12-08T15:41:39.037Z,60.39
2018-12-08T15:44:15.694Z,60.30
2018-12-08T15:46:51.217Z,60.76
2018-12-08T15:49:31.914Z,60.22
2018-12-08T15:55:07.075Z,60.77
2018-12-08T15:57:42.285Z,60.47
2018-12-08T16:00:22.763Z,60.90
2018-12-08T16:03:03.233Z,61.11
2018-12-08T16:05:41.314Z,61.36
2018-12-08T16:08:21.003Z,61.42
2018-12-08T16:10:59.146Z,61.58
2018-12-08T16:13:40.016Z,61.85
2018-12-08T16:16:16.769Z,61.85
2018-12-08T16:19:03.661Z,62.09
2018-12-08T16:21:47.957Z,62.51
2018-12-08T16:24:30.394Z,62.18
2018-12-08T16:27:05.387Z,62.61
2018-12-08T16:29:43.549Z,62.26
2018-12-08T16:32:34.217Z,62.16
2018-12-08T16:35:14.947Z,62.41
2018-12-08T16:37:57.131Z,62.47
2018-12-08T16:40:34.283Z,62.44
2018-12-08T16:43:16.636Z,61.90
2018-12-08T16:45:58.041Z,62.17
2018-12-08T16:48:46.840Z,61.51
2018-12-08T16:51:23.342Z,62.03
2018-12-08T16:54:02.749Z,61.83
2018-12-08T16:56:40.546Z,62.42
2018-12-08T16:59:22.142Z,62.42
2018-12-08T17:02:04.289Z,62.54
2018-12-08T17:04:52.278Z,62.62
2018-12-08T17:07:35.565Z,62.70
2018-12-08T17:10:16.315Z,62.66
2018-12-08T17:13:00.176Z,62.78
2018-12-08T17:15:41.605Z,62.73
2018-12-08T17:18:17.217Z,63.23
2018-12-08T17:20:55.089Z,63.52
2018-12-08T17:26:33.517Z,64.25
2018-12-08T17:29:08.462Z,64.05
2018-12-08T17:31:49.217Z,64.42
2018-12-08T17:34:27.732Z,64.51
2018-12-08T17:37:07.020Z,64.61
2018-12-08T17:39:42.114Z,65.09
2018-12-08T17:42:23.261Z,64.62
2018-12-08T17:45:06.804Z,64.70
2018-12-08T17:47:47.326Z,65.06
2018-12-08T17:50:28.418Z,64.81
2018-12-08T17:53:09.034Z,64.53
2018-12-08T17:55:49.830Z,64.41
2018-12-08T17:58:47.366Z,64.27
2018-12-08T18:01:28.382Z,63.94
2018-12-08T18:04:09.122Z,64.53
2018-12-08T18:07:02.766Z,64.13
2018-12-08T18:09:43.370Z,64.14
2018-12-08T18:12:25.536Z,63.74
2018-12-08T18:15:03.686Z,63.67
2018-12-08T18:17:50.983Z,63.59
2018-12-08T18:20:27.803Z,64.03
2018-12-08T18:23:05.412Z,63.50
2018-12-08T18:25:43.550Z,63.58
2018-12-08T18:28:18.280Z,63.16
2018-12-08T18:31:00.286Z,63.17
2018-12-08T18:33:39.180Z,62.98
2018-12-08T18:36:18.223Z,62.76
2018-12-08T18:38:57.602Z,63.09
2018-12-08T18:41:36.003Z,63.14
2018-12-08T18:44:17.171Z,62.51
2018-12-08T18:47:08.235Z,62.65
2018-12-08T18:49:42.820Z,62.19
2018-12-08T18:52:18.153Z,62.00
2018-12-08T18:54:59.385Z,62.12
2018-12-08T18:57:52.229Z,61.98
2018-12-08T19:00:39.382Z,61.53
2018-12-08T19:03:13.981Z,61.67
2018-12-08T19:05:58.802Z,61.29
2018-12-08T19:08:33.292Z,61.30
2018-12-08T19:14:06.730Z,60.76
2018-12-08T19:16:47.982Z,60.67
2018-12-08T19:19:26.772Z,60.71
2018-12-08T19:22:08.567Z,60.33
2018-12-08T19:24:51.222Z,60.16
2018-12-08T19:27:28.986Z,60.65
2018-12-08T19:30:13.316Z,60.21
2018-12-08T19:32:52.353Z,60.27
2018-12-08T19:35:27.554Z,60.32
2018-12-08T19:38:12.190Z,59.62
2018-12-08T19:40:52.830Z,59.46
2018-12-08T19:43:39.752Z,59.29
2018-12-08T19:46:20.652Z,59.53
2018-12-08T19:48:59.833Z,59.04
2018-12-08T19:51:34.946Z,59.48
2018-12-08T19:54:09.389Z,59.03
2018-12-08T19:56:43.780Z,58.97
2018-12-08T19:59:25.685Z,59.33
2018-12-08T20:02:04.318Z,59.40
2018-12-08T20:04:39.847Z,59.05
2018-12-08T20:07:29.001Z,58.77
2018-12-08T20:10:12.658Z,58.89
2018-12-08T20:12:47.261Z,58.87
2018-12-08T20:15:30.895Z,58.83
2018-12-08T20:18:13.949Z,58.37
2018-12-08T20:20:54.824Z,58.32
2018-12-08T20:23:29.514Z,58.93
2018-12-08T20:26:04.382Z,58.70
2018-12-08T20:28:39.861Z,59.06
2018-12-08T20:31:14.560Z,59.02
2018-12-08T20:33:49.687Z,58.93
2018-12-08T20:36:26.867Z,58.95
2018-12-08T20:39:01.841Z,58.78
2018-12-08T20:41:36.494Z,59.23
2018-12-08T20:44:11.625Z,58.60
2018-12-08T20:46:46.653Z,58.68
2018-12-08T20:49:21.613Z,58.57
2018-12-08T20:51:56.361Z,58.60
2018-12-08T20:54:31.898Z,58.58
2018-12-08T20:57:13.941Z,58.67
2018-12-08T20:59:49.035Z,58.45
2018-12-08T21:02:25.066Z,59.07
2018-12-08T21:04:59.787Z,58.57
2018-12-08T21:07:35.867Z,58.58
2018-12-08T21:10:10.857Z,58.54
2018-12-08T21:12:46.180Z,58.44
2018-12-08T21:15:21.550Z,58.72
2018-12-08T21:17:55.982Z,58.79
2018-12-08T21:20:30.842Z,58.97
2018-12-08T21:23:06.136Z,58.95
2018-12-08T21:25:41.322Z,59.35
2018-12-08T21:28:16.305Z,59.22
2018-12-08T21:30:51.328Z,59.63
2018-12-08T21:33:26.233Z,60.66
2018-12-08T21:36:00.774Z,60.56
2018-12-08T21:38:35.605Z,60.38
2018-12-08T21:41:10.110Z,60.00
2018-12-08T21:43:44.702Z,60.13
2018-12-08T21:46:20.130Z,60.08
2018-12-08T21:48:54.869Z,60.46
2018-12-08T21:51:29.314Z,59.99
2018-12-08T21:54:04.526Z,59.92
2018-12-08T21:56:39.244Z,59.93
2018-12-08T21:59:14.293Z,60.05
2018-12-08T22:01:49.383Z,59.66
2018-12-08T22:04:23.718Z,60.09
2018-12-08T22:06:58.580Z,59.58
2018-12-08T22:09:33.249Z,60.06
2018-12-08T22:12:08.458Z,60.12
2018-12-08T22:14:48.524Z,59.95
2018-12-08T22:17:23.020Z,60.31
2018-12-08T22:19:57.857Z,59.95
2018-12-08T22:22:32.916Z,60.41
2018-12-08T22:25:20.089Z,60.27
2018-12-08T22:27:54.637Z,60.47
2018-12-08T22:30:29.490Z,60.42
2018-12-08T22:33:04.462Z,60.93
2018-12-08T22:35:39.881Z,61.67
2018-12-08T22:38:14.312Z,63.57
2018-12-08T22:40:49.524Z,65.32
2018-12-08T22:43:43.147Z,67.83
2018-12-08T22:46:20.918Z,68.72
2018-12-08T22:48:56.286Z,68.10
2018-12-08T22:51:33.009Z,67.60
2018-12-08T22:54:24.206Z,67.12
2018-12-08T22:57:05.271Z,66.70
2018-12-08T23:02:42.429Z,65.91
2018-12-08T23:08:20.541Z,65.72
2018-12-08T23:11:01.387Z,65.56
2018-12-08T23:13:53.035Z,65.49
2018-12-08T23:16:28.437Z,65.33
2018-12-08T23:22:12.413Z,66.28
2018-12-08T23:27:53.573Z,66.13
2018-12-08T23:30:34.122Z,66.13
2018-12-08T23:33:15.635Z,66.13
2018-12-08T23:35:53.658Z,65.92
2018-12-08T23:38:34.739Z,65.91
2018-12-08T23:41:12.839Z,66.06
2018-12-08T23:43:53.187Z,65.89
2018-12-08T23:46:28.261Z,65.94
2018-12-08T23:49:11.369Z,65.68
2018-12-08T23:51:47.222Z,66.80
2018-12-08T23:54:25.770Z,68.16
2018-12-08T23:57:05.450Z,70.36
2018-12-08T23:59:43.634Z,71.52
